createdAt,value
2019-04-22T00:00:12.762Z,5.53
2019-04-22T00:02:47.104Z,6.07
2019-04-22T00:05:19.267Z,6.10
2019-04-22T00:08:05.146Z,6.43
2019-04-22T00:12:59.796Z,5.80
2019-04-22T00:15:30.968Z,6.20
2019-04-22T00:20:30.405Z,6.20
2019-04-22T00:23:00.089Z,6.20
2019-04-22T00:25:27.916Z,5.77
2019-04-22T00:28:04.879Z,6.03
2019-04-22T00:30:22.146Z,6.17
2019-04-22T00:33:03.447Z,6.00
2019-04-22T00:35:33.194Z,6.00
2019-04-22T00:38:08.950Z,5.87
2019-04-22T00:40:33.892Z,6.20
2019-04-22T00:42:58.338Z,5.70
2019-04-22T00:45:32.934Z,6.03
2019-04-22T00:48:00.979Z,5.93
2019-04-22T00:50:31.699Z,5.80
2019-04-22T00:53:05.697Z,6.37
2019-04-22T00:55:26.258Z,5.90
2019-04-22T00:57:56.162Z,6.40
2019-04-22T01:00:24.715Z,6.13
2019-04-22T01:02:54.326Z,5.97
2019-04-22T01:05:27.821Z,6.83
2019-04-22T01:07:49.171Z,13.47
2019-04-22T01:10:30.619Z,14.63
2019-04-22T01:12:50.010Z,6.60
2019-04-22T01:15:24.758Z,5.47
2019-04-22T01:17:56.205Z,5.43
2019-04-22T01:20:29.361Z,5.70
2019-04-22T01:22:46.188Z,5.77
2019-04-22T01:25:14.391Z,6.27
2019-04-22T01:27:34.972Z,5.77
2019-04-22T01:30:03.706Z,6.10
2019-04-22T01:32:26.303Z,5.63
2019-04-22T01:35:04.774Z,5.47
2019-04-22T01:37:37.293Z,5.73
2019-04-22T01:40:09.863Z,6.07
2019-04-22T01:42:39.815Z,5.77
2019-04-22T01:45:14.266Z,6.37
2019-04-22T01:47:36.727Z,6.23
2019-04-22T01:50:10.274Z,6.03
2019-04-22T01:52:39.887Z,6.70
2019-04-22T01:55:10.681Z,8.37
2019-04-22T01:57:28.404Z,8.73
2019-04-22T01:59:57.633Z,7.97
2019-04-22T02:05:07.338Z,8.87
2019-04-22T02:07:29.524Z,7.10
2019-04-22T02:09:56.132Z,6.57
2019-04-22T02:12:30.600Z,6.20
2019-04-22T02:14:58.099Z,6.07
2019-04-22T02:17:31.590Z,6.10
2019-04-22T02:20:01.910Z,6.33
2019-04-22T02:22:38.301Z,5.67
2019-04-22T02:24:56.353Z,6.43
2019-04-22T02:27:29.262Z,6.50
2019-04-22T02:29:52.281Z,6.50
2019-04-22T02:34:58.651Z,6.00
2019-04-22T02:37:21.236Z,5.63
2019-04-22T02:42:13.650Z,5.70
2019-04-22T02:44:48.479Z,6.53
2019-04-22T02:47:20.818Z,6.27
2019-04-22T02:49:47.406Z,6.27
2019-04-22T02:52:19.972Z,6.80
2019-04-22T02:57:22.710Z,6.30
2019-04-22T02:59:39.794Z,6.07
2019-04-22T03:02:12.099Z,6.67
2019-04-22T03:04:37.679Z,6.80
2019-04-22T03:07:03.584Z,6.40
2019-04-22T03:14:37.942Z,6.53
2019-04-22T03:19:44.324Z,6.00
2019-04-22T03:22:00.487Z,6.40
2019-04-22T03:24:54.295Z,6.00
2019-04-22T03:27:04.729Z,6.30
2019-04-22T03:30:33.284Z,6.13
2019-04-22T03:33:03.063Z,6.70
2019-04-22T03:37:32.375Z,6.40
2019-04-22T03:40:09.399Z,7.27
2019-04-22T03:42:21.828Z,6.83
2019-04-22T03:45:00.120Z,7.40
2019-04-22T03:50:13.325Z,6.60
2019-04-22T03:52:20.683Z,7.40
2019-04-22T03:54:54.526Z,6.70
2019-04-22T03:59:48.039Z,6.50
2019-04-22T04:02:29.248Z,7.03
2019-04-22T04:04:45.649Z,6.77
2019-04-22T04:07:32.368Z,6.47
2019-04-22T04:14:46.288Z,6.67
2019-04-22T04:17:08.752Z,7.20
2019-04-22T04:19:48.763Z,6.97
2019-04-22T04:27:20.765Z,6.90
2019-04-22T04:32:18.872Z,6.90
2019-04-22T04:34:56.359Z,6.87
2019-04-22T04:39:34.197Z,6.77
2019-04-22T04:42:14.361Z,6.83
2019-04-22T04:44:59.032Z,7.73
2019-04-22T04:47:03.531Z,6.97
2019-04-22T04:49:34.991Z,6.67
2019-04-22T04:52:19.815Z,7.30
2019-04-22T04:56:46.611Z,7.27
2019-04-22T04:59:44.950Z,6.90
2019-04-22T05:09:21.545Z,7.10
2019-04-22T05:11:54.438Z,7.57
2019-04-22T05:14:18.475Z,7.80
2019-04-22T05:16:47.740Z,7.33
2019-04-22T05:21:31.050Z,7.30
2019-04-22T05:24:15.159Z,7.57
2019-04-22T05:27:10.850Z,7.10
2019-04-22T05:29:26.654Z,7.30
2019-04-22T05:34:22.821Z,6.83
2019-04-22T05:36:57.137Z,7.23
2019-04-22T05:39:17.269Z,7.40
2019-04-22T05:41:48.747Z,7.13
2019-04-22T05:44:22.642Z,7.53
2019-04-22T05:46:47.877Z,7.40
2019-04-22T05:51:41.963Z,7.70
2019-04-22T05:54:19.018Z,7.50
2019-04-22T05:56:51.951Z,7.78
2019-04-22T05:59:14.707Z,7.95
2019-04-22T06:04:11.294Z,7.75
2019-04-22T06:06:35.319Z,7.87
2019-04-22T06:09:10.720Z,7.78
2019-04-22T06:11:33.892Z,8.03
2019-04-22T06:14:12.327Z,8.35
2019-04-22T06:16:45.806Z,8.45
2019-04-22T06:19:13.743Z,9.63
2019-04-22T06:24:16.618Z,9.18
2019-04-22T06:26:58.351Z,9.23
2019-04-22T06:29:10.393Z,8.65
2019-04-22T06:31:49.879Z,8.85
2019-04-22T06:34:11.914Z,8.05
2019-04-22T06:36:37.424Z,8.25
2019-04-22T06:39:13.371Z,8.50
2019-04-22T06:41:36.941Z,8.25
2019-04-22T06:44:04.765Z,8.10
2019-04-22T06:46:37.729Z,8.50
2019-04-22T06:49:03.612Z,8.20
2019-04-22T06:51:32.957Z,8.03
2019-04-22T06:53:53.983Z,7.78
2019-04-22T06:56:22.156Z,7.05
2019-04-22T06:58:55.112Z,7.22
2019-04-22T07:04:03.167Z,7.75
2019-04-22T07:06:26.486Z,10.45
2019-04-22T07:09:22.026Z,8.50
2019-04-22T07:11:11.415Z,7.25
2019-04-22T07:13:49.099Z,7.25
2019-04-22T07:16:23.341Z,7.03
2019-04-22T07:19:05.665Z,6.87
2019-04-22T07:21:12.592Z,11.88
2019-04-22T07:24:17.501Z,8.73
2019-04-22T07:26:11.477Z,7.05
2019-04-22T07:28:39.376Z,6.70
2019-04-22T07:31:10.323Z,5.00
2019-04-22T07:33:48.815Z,3.37
2019-04-22T07:38:34.118Z,3.47
2019-04-22T07:40:59.347Z,3.72
2019-04-22T07:43:51.637Z,3.58
2019-04-22T07:46:00.011Z,3.20
2019-04-22T07:48:43.445Z,3.50
2019-04-22T07:51:02.711Z,3.67
2019-04-22T07:53:29.283Z,3.92
2019-04-22T07:55:58.474Z,3.62
2019-04-22T07:58:30.620Z,3.20
2019-04-22T08:01:02.052Z,3.45
2019-04-22T08:03:51.618Z,3.55
2019-04-22T08:06:08.729Z,3.45
2019-04-22T08:08:26.178Z,3.60
2019-04-22T08:11:06.869Z,3.90
2019-04-22T08:13:28.052Z,3.70
2019-04-22T08:15:56.793Z,3.47
2019-04-22T08:18:22.442Z,3.60
2019-04-22T08:20:55.418Z,3.65
2019-04-22T08:23:25.977Z,3.27
2019-04-22T08:25:49.559Z,3.60
2019-04-22T08:28:19.830Z,3.60
2019-04-22T08:30:50.575Z,3.50
2019-04-22T08:33:21.725Z,3.62
2019-04-22T08:36:00.488Z,3.45
2019-04-22T08:38:19.319Z,3.30
2019-04-22T08:40:56.917Z,3.47
2019-04-22T08:43:30.075Z,3.50
2019-04-22T08:45:51.104Z,3.90
2019-04-22T08:48:17.781Z,3.60
2019-04-22T08:50:44.238Z,3.50
2019-04-22T08:53:19.940Z,3.52
2019-04-22T08:55:51.521Z,3.80
2019-04-22T08:58:25.203Z,3.27
2019-04-22T09:00:50.032Z,3.67
2019-04-22T09:03:10.543Z,3.60
2019-04-22T09:06:01.415Z,3.40
2019-04-22T09:08:13.689Z,3.60
2019-04-22T09:13:22.756Z,3.10
2019-04-22T09:15:39.171Z,3.30
2019-04-22T09:18:11.145Z,3.35
2019-04-22T09:23:07.611Z,3.42
2019-04-22T09:25:34.290Z,4.78
2019-04-22T09:28:01.917Z,3.50
2019-04-22T09:30:37.388Z,3.20
2019-04-22T09:33:01.698Z,3.20
2019-04-22T09:38:12.047Z,3.37
2019-04-22T09:40:31.529Z,3.00
2019-04-22T09:42:56.442Z,3.10
2019-04-22T09:45:22.886Z,3.05
2019-04-22T09:48:03.221Z,3.25
2019-04-22T09:50:33.514Z,3.02
2019-04-22T09:52:54.866Z,2.80
2019-04-22T09:55:24.381Z,3.08
2019-04-22T09:57:51.050Z,3.20
2019-04-22T10:00:25.338Z,2.80
2019-04-22T10:02:55.840Z,2.80
2019-04-22T10:05:21.091Z,3.42
2019-04-22T10:07:44.948Z,3.20
2019-04-22T10:10:19.716Z,2.45
2019-04-22T10:13:06.415Z,2.62
2019-04-22T10:15:13.813Z,2.98
2019-04-22T10:17:47.451Z,2.85
2019-04-22T10:20:10.623Z,3.00
2019-04-22T10:22:46.516Z,2.65
2019-04-22T10:25:10.698Z,2.80
2019-04-22T10:27:42.918Z,2.80
2019-04-22T10:30:33.561Z,2.92
2019-04-22T10:32:37.638Z,2.80
2019-04-22T10:35:08.164Z,2.55
2019-04-22T10:37:32.254Z,2.58
2019-04-22T10:40:03.956Z,2.80
2019-04-22T10:42:39.375Z,2.70
2019-04-22T10:45:06.384Z,2.55
2019-04-22T10:47:34.163Z,2.95
2019-04-22T10:50:02.596Z,2.72
2019-04-22T10:52:30.083Z,2.62
2019-04-22T10:54:57.318Z,2.87
2019-04-22T10:57:25.529Z,2.65
2019-04-22T10:59:52.860Z,2.52
2019-04-22T11:02:21.387Z,2.62
2019-04-22T11:04:49.915Z,3.00
2019-04-22T11:07:18.904Z,2.72
2019-04-22T11:09:55.294Z,2.70
2019-04-22T11:12:19.202Z,2.50
2019-04-22T11:14:43.547Z,2.45
2019-04-22T11:17:11.417Z,2.47
2019-04-22T11:19:39.488Z,2.62
2019-04-22T11:22:14.987Z,2.40
2019-04-22T11:24:36.608Z,2.37
2019-04-22T11:27:05.313Z,2.47
2019-04-22T11:29:32.238Z,2.83
2019-04-22T11:32:00.129Z,2.70
2019-04-22T11:34:27.299Z,2.55
2019-04-22T11:36:54.971Z,2.30
2019-04-22T11:39:21.942Z,2.45
2019-04-22T11:41:49.978Z,2.65
2019-04-22T11:44:17.209Z,2.30
2019-04-22T11:46:45.274Z,2.37
2019-04-22T11:49:14.018Z,2.22
2019-04-22T11:51:42.140Z,2.50
2019-04-22T11:54:10.438Z,2.30
2019-04-22T11:56:38.888Z,2.35
2019-04-22T11:59:06.758Z,2.50
2019-04-22T12:01:34.999Z,2.25
2019-04-22T12:04:02.230Z,2.17
2019-04-22T12:06:29.235Z,2.35
2019-04-22T12:08:57.559Z,2.10
2019-04-22T12:11:26.273Z,2.20
2019-04-22T12:13:54.015Z,2.25
2019-04-22T12:16:21.397Z,1.98
2019-04-22T12:18:49.326Z,2.20
2019-04-22T12:21:17.107Z,2.00
2019-04-22T12:23:45.207Z,2.17
2019-04-22T12:26:16.847Z,2.05
2019-04-22T12:28:41.849Z,2.33
2019-04-22T12:31:09.479Z,2.40
2019-04-22T12:33:37.152Z,2.22
2019-04-22T12:36:06.504Z,2.00
2019-04-22T12:38:33.531Z,2.15
2019-04-22T12:41:04.945Z,2.33
2019-04-22T12:43:29.837Z,2.33
2019-04-22T12:45:58.317Z,2.17
2019-04-22T12:48:25.522Z,2.40
2019-04-22T12:50:55.985Z,2.20
2019-04-22T12:53:25.327Z,2.20
2019-04-22T12:55:50.468Z,2.35
2019-04-22T12:58:18.101Z,2.30
2019-04-22T13:00:45.241Z,2.17
2019-04-22T13:03:12.112Z,2.45
2019-04-22T13:05:38.903Z,2.45
2019-04-22T13:08:07.456Z,2.35
2019-04-22T13:10:45.611Z,2.40
2019-04-22T13:13:04.885Z,2.27
2019-04-22T13:15:32.964Z,2.20
2019-04-22T13:18:10.671Z,2.50
2019-04-22T13:20:28.653Z,2.05
2019-04-22T13:22:57.000Z,2.35
2019-04-22T13:25:26.985Z,2.02
2019-04-22T13:27:53.357Z,2.30
2019-04-22T13:30:22.784Z,2.20
2019-04-22T13:32:49.915Z,2.30
2019-04-22T13:35:19.984Z,2.20
2019-04-22T13:37:46.792Z,2.30
2019-04-22T13:40:15.121Z,2.45
2019-04-22T13:42:42.835Z,2.30
2019-04-22T13:45:11.630Z,2.62
2019-04-22T13:47:58.654Z,2.50
2019-04-22T13:50:43.741Z,2.30
2019-04-22T13:53:23.342Z,2.40
2019-04-22T13:55:43.794Z,2.20
2019-04-22T13:57:55.894Z,2.30
2019-04-22T14:00:11.413Z,2.30
2019-04-22T14:03:04.670Z,2.37
2019-04-22T14:05:32.944Z,2.58
2019-04-22T14:08:02.554Z,2.20
2019-04-22T14:10:30.099Z,2.25
2019-04-22T14:12:57.245Z,2.60
2019-04-22T14:15:24.364Z,2.37
2019-04-22T14:17:52.622Z,2.40
2019-04-22T14:20:20.646Z,2.70
2019-04-22T14:22:48.721Z,2.40
2019-04-22T14:25:16.614Z,2.40
2019-04-22T14:27:51.128Z,2.30
2019-04-22T14:30:14.819Z,2.52
2019-04-22T14:32:42.502Z,2.50
2019-04-22T14:35:13.244Z,2.35
2019-04-22T14:37:40.531Z,2.40
2019-04-22T14:40:09.470Z,2.42
2019-04-22T14:42:58.176Z,2.40
2019-04-22T14:45:43.930Z,2.60
2019-04-22T14:48:02.808Z,2.40
2019-04-22T14:50:29.299Z,2.60
2019-04-22T14:52:58.369Z,2.40
2019-04-22T14:55:12.911Z,2.40
2019-04-22T14:57:34.265Z,2.60
2019-04-22T15:00:04.319Z,2.50
2019-04-22T15:02:31.930Z,2.40
2019-04-22T15:05:00.456Z,2.70
2019-04-22T15:07:28.697Z,2.45
2019-04-22T15:09:55.799Z,2.42
2019-04-22T15:12:31.170Z,2.20
2019-04-22T15:14:53.447Z,2.50
2019-04-22T15:17:31.197Z,2.50
2019-04-22T15:20:03.799Z,2.27
2019-04-22T15:22:30.964Z,2.22
2019-04-22T15:24:58.573Z,2.50
2019-04-22T15:27:29.167Z,2.75
2019-04-22T15:29:54.736Z,2.87
2019-04-22T15:32:23.143Z,2.70
2019-04-22T15:34:51.173Z,2.47
2019-04-22T15:37:20.341Z,2.80
2019-04-22T15:39:47.879Z,2.52
2019-04-22T15:42:22.832Z,2.65
2019-04-22T15:44:46.239Z,2.70
2019-04-22T15:47:15.102Z,2.70
2019-04-22T15:49:42.303Z,3.10
2019-04-22T15:52:10.443Z,2.80
2019-04-22T15:54:39.336Z,2.40
2019-04-22T15:57:06.728Z,2.50
2019-04-22T15:59:52.651Z,2.52
2019-04-22T16:02:04.037Z,2.77
2019-04-22T16:04:32.664Z,2.60
2019-04-22T16:07:01.211Z,2.90
2019-04-22T16:09:29.162Z,2.40
2019-04-22T16:12:09.426Z,2.47
2019-04-22T16:14:32.793Z,2.60
2019-04-22T16:16:54.709Z,2.50
2019-04-22T16:19:23.257Z,2.12
2019-04-22T16:21:56.493Z,2.30
2019-04-22T16:24:42.942Z,2.40
2019-04-22T16:27:22.839Z,2.27
2019-04-22T16:29:51.278Z,2.30
2019-04-22T16:32:19.179Z,2.30
2019-04-22T16:34:47.668Z,2.40
2019-04-22T16:37:14.937Z,3.00
2019-04-22T16:39:44.695Z,2.60
2019-04-22T16:42:23.964Z,2.65
2019-04-22T16:44:40.717Z,2.50
2019-04-22T16:47:08.086Z,2.40
2019-04-22T16:49:35.343Z,2.50
2019-04-22T16:52:03.710Z,2.30
2019-04-22T16:54:30.973Z,2.50
2019-04-22T16:56:59.517Z,2.60
2019-04-22T16:59:26.959Z,2.65
2019-04-22T17:02:10.634Z,2.80
2019-04-22T17:04:57.634Z,2.80
2019-04-22T17:07:26.385Z,2.83
2019-04-22T17:09:53.566Z,2.98
2019-04-22T17:12:21.719Z,2.72
2019-04-22T17:14:55.994Z,2.92
2019-04-22T17:17:18.319Z,2.87
2019-04-22T17:19:45.301Z,3.02
2019-04-22T17:22:13.348Z,2.70
2019-04-22T17:24:41.628Z,2.98
2019-04-22T17:27:10.496Z,2.95
2019-04-22T17:29:38.634Z,2.35
2019-04-22T17:32:12.822Z,2.42
2019-04-22T17:34:35.783Z,2.65
2019-04-22T17:37:10.884Z,2.80
2019-04-22T17:39:46.401Z,3.02
2019-04-22T17:42:22.412Z,3.12
2019-04-22T17:44:55.755Z,2.70
2019-04-22T17:47:44.749Z,2.70
2019-04-22T17:50:20.282Z,2.50
2019-04-22T17:53:01.177Z,2.77
2019-04-22T17:55:11.429Z,2.67
2019-04-22T17:57:42.303Z,3.00
2019-04-22T18:00:11.806Z,2.55
2019-04-22T18:02:39.673Z,2.80
2019-04-22T18:05:00.914Z,3.05
2019-04-22T18:07:43.222Z,2.55
2019-04-22T18:10:28.811Z,2.62
2019-04-22T18:15:14.578Z,2.70
2019-04-22T18:20:07.165Z,3.55
2019-04-22T18:22:29.419Z,2.80
2019-04-22T18:25:02.188Z,2.60
2019-04-22T18:27:55.096Z,2.65
2019-04-22T18:30:01.959Z,2.70
2019-04-22T18:32:30.691Z,2.90
2019-04-22T18:34:52.972Z,3.10
2019-04-22T18:37:24.637Z,2.75
2019-04-22T18:40:03.276Z,2.80
2019-04-22T18:42:26.798Z,2.80
2019-04-22T18:45:06.813Z,2.72
2019-04-22T18:47:24.874Z,2.95
2019-04-22T18:49:53.229Z,2.85
2019-04-22T18:52:43.696Z,2.90
2019-04-22T18:55:38.772Z,2.55
2019-04-22T18:58:08.971Z,2.47
2019-04-22T19:00:27.530Z,3.15
2019-04-22T19:03:01.955Z,3.00
2019-04-22T19:05:42.657Z,2.45
2019-04-22T19:08:21.407Z,2.72
2019-04-22T19:10:51.771Z,2.50
2019-04-22T19:13:49.061Z,2.50
2019-04-22T19:15:48.793Z,2.42
2019-04-22T19:18:18.182Z,3.17
2019-04-22T19:20:42.635Z,3.00
2019-04-22T19:23:13.148Z,2.35
2019-04-22T19:25:40.857Z,2.40
2019-04-22T19:28:17.896Z,2.50
2019-04-22T19:30:36.624Z,2.02
2019-04-22T19:33:13.958Z,2.10
2019-04-22T19:35:29.944Z,2.33
2019-04-22T19:37:58.786Z,2.27
2019-04-22T19:40:50.531Z,2.20
2019-04-22T19:43:11.822Z,2.30
2019-04-22T19:45:37.091Z,2.45
2019-04-22T19:48:14.309Z,2.10
2019-04-22T19:50:50.437Z,2.12
2019-04-22T19:53:10.383Z,2.35
2019-04-22T19:55:39.026Z,2.30
2019-04-22T19:58:04.116Z,2.30
2019-04-22T20:01:08.781Z,2.30
2019-04-22T20:04:12.311Z,2.60
2019-04-22T20:06:38.467Z,2.67
2019-04-22T20:09:13.333Z,2.25
2019-04-22T20:11:38.565Z,2.55
2019-04-22T20:14:07.524Z,2.20
2019-04-22T20:16:33.888Z,2.17
2019-04-22T20:19:10.548Z,2.70
2019-04-22T20:21:35.708Z,2.60
2019-04-22T20:23:51.749Z,2.60
2019-04-22T20:26:26.519Z,2.42
2019-04-22T20:28:57.592Z,2.52
2019-04-22T20:31:25.281Z,2.58
2019-04-22T20:34:05.034Z,2.77
2019-04-22T20:36:44.676Z,2.75
2019-04-22T20:38:56.669Z,2.80
2019-04-22T20:41:22.270Z,2.77
2019-04-22T20:43:56.526Z,2.60
2019-04-22T20:46:22.436Z,2.90
2019-04-22T20:48:56.904Z,2.98
2019-04-22T20:51:26.266Z,2.92
2019-04-22T20:53:48.027Z,3.25
2019-04-22T20:56:14.456Z,3.08
2019-04-22T20:58:46.678Z,2.75
2019-04-22T21:01:06.455Z,3.12
2019-04-22T21:03:33.261Z,2.83
2019-04-22T21:06:10.268Z,2.90
2019-04-22T21:08:42.096Z,2.80
2019-04-22T21:11:14.328Z,3.25
2019-04-22T21:13:34.619Z,3.10
2019-04-22T21:16:09.418Z,3.17
2019-04-22T21:18:30.470Z,3.30
2019-04-22T21:21:07.141Z,3.10
2019-04-22T21:23:30.087Z,2.90
2019-04-22T21:26:02.318Z,3.08
2019-04-22T21:28:33.042Z,3.20
2019-04-22T21:30:56.835Z,3.20
2019-04-22T21:33:24.885Z,3.40
2019-04-22T21:36:05.683Z,3.12
2019-04-22T21:38:32.582Z,3.40
2019-04-22T21:40:56.760Z,2.95
2019-04-22T21:43:30.751Z,3.33
2019-04-22T21:45:57.322Z,3.30
2019-04-22T21:48:31.160Z,3.52
2019-04-22T21:50:59.790Z,3.42
2019-04-22T21:53:31.293Z,3.50
2019-04-22T21:56:10.156Z,3.27
2019-04-22T21:58:31.748Z,3.37
2019-04-22T22:01:14.604Z,3.67
2019-04-22T22:03:38.876Z,3.80
2019-04-22T22:05:56.202Z,3.60
2019-04-22T22:08:40.230Z,3.87
2019-04-22T22:11:02.230Z,3.80
2019-04-22T22:13:31.937Z,3.90
2019-04-22T22:15:56.372Z,3.87
2019-04-22T22:18:24.362Z,3.90
2019-04-22T22:21:19.059Z,4.40
2019-04-22T22:23:34.431Z,4.12
2019-04-22T22:25:55.789Z,3.62
2019-04-22T22:28:40.187Z,3.83
2019-04-22T22:33:27.196Z,3.58
2019-04-22T22:35:51.668Z,4.37
2019-04-22T22:38:19.639Z,3.80
2019-04-22T22:40:32.201Z,4.30
2019-04-22T22:42:57.843Z,4.05
2019-04-22T22:45:33.680Z,4.58
2019-04-22T22:48:21.673Z,4.92
2019-04-22T22:50:43.169Z,4.42
2019-04-22T22:53:22.635Z,4.72
2019-04-22T22:55:41.005Z,4.37
2019-04-22T22:58:17.688Z,4.80
2019-04-22T23:00:39.379Z,5.00
2019-04-22T23:03:38.471Z,4.55
2019-04-22T23:05:45.494Z,4.53
2019-04-22T23:08:11.741Z,4.87
2019-04-22T23:10:44.376Z,5.05
2019-04-22T23:13:20.447Z,4.67
2019-04-22T23:15:37.097Z,4.97
2019-04-22T23:17:45.584Z,5.10
2019-04-22T23:20:13.760Z,5.10
2019-04-22T23:23:06.212Z,5.05
2019-04-22T23:25:32.813Z,5.17
2019-04-22T23:28:05.965Z,5.15
2019-04-22T23:30:46.093Z,4.78
2019-04-22T23:33:31.121Z,4.92
2019-04-22T23:36:12.355Z,5.62
2019-04-22T23:38:50.484Z,5.45
2019-04-22T23:44:11.463Z,5.10
2019-04-22T23:46:41.167Z,5.30
2019-04-22T23:49:11.826Z,5.03
2019-04-22T23:51:51.549Z,5.80
2019-04-22T23:54:20.411Z,5.30
2019-04-22T23:56:38.357Z,5.60
2019-04-22T23:59:19.755Z,5.47
